KDTW/DTW METAR and TAF weather

Enter ICAO airport designator
Station Type Date Time Source
KDTW METAR 2019/06/18 11:53 UTC NOAA

KDTW 181153Z 00000KT 6SM HZ BKN040 OVC110 17/12 A2998 RMK AO2 SLP149 T01670117 10172 20144 51005 $


Station Type Date Time Source
KDTW Decoded METAR 2019/06/18 11:53 UTC NOAA

DETROIT METROPOLITAN, MI, United States (KDTW) 42-14N 83-20W 195M
Jun 18, 2019 - 07:53 AM EDT / 2019.06.18 1153 UTC
Wind: Calm:0
Visibility: 6 mile(s):0
Sky conditions: overcast
Weather: haze
Temperature: 62.1 F (16.7 C)
Dew Point: 53.1 F (11.7 C)
Relative Humidity: 72%
Pressure (altimeter): 29.98 in. Hg (1015 hPa)
Pressure tendency: 0.01 inches (0.5 hPa) higher than three hours ago
ob: KDTW 181153Z 00000KT 6SM HZ BKN040 OVC110 17/12 A2998 RMK AO2 SLP149 T01670117 10172 20144 51005
cycle: 12

Station Type Date Time Source
KDTW TAF 2019/06/18 12:24 UTC NOAA

TAF KDTW 181123Z 1812/1918 VRB03KT P6SM BKN035 OVC200
TEMPO 1812/1814 SCT050 BKN200
FM181600 06005KT P6SM BKN040
FM182000 14007KT P6SM SCT050
FM190800 22005KT P6SM SCT120
FM191400 28005KT P6SM SCT050 BKN120

Example: see airport list